Time;durP1;ratioP1;P1;durP2;ratioP2;P2;SDS_P1;SDS_P2;PMS_P1;PMS_P2;Temp;Humidity;BMP_temperature;BMP_pressure;BME280_temperature;BME280_humidity;BME280_pressure;Samples;Min_cycle;Max_cycle;Signal;HPM_P1;HPM_P2
2022/11/29 00:03:01;;;;;;;12.57;8.52;;;;;;;;;;10419776;28;20214;-77
2022/11/29 00:08:02;;;;;;;17.40;8.63;;;;;;;;;;10415306;28;20220;-77
2022/11/29 00:13:03;;;;;;;14.10;8.48;;;;;;;;;;10413684;28;20280;-77
2022/11/29 00:18:05;;;;;;;19.15;8.65;;;;;;;;;;10419353;28;20229;-77
2022/11/29 00:23:06;;;;;;;12.50;8.18;;;;;;;;;;10416433;28;20222;-77
2022/11/29 00:28:07;;;;;;;15.85;9.15;;;;;;;;;;10413150;28;20229;-77
2022/11/29 00:33:08;;;;;;;14.00;8.60;;;;;;;;;;10385186;28;20251;-77
2022/11/29 00:38:09;;;;;;;15.00;9.27;;;;;;;;;;10377517;28;20277;-77
2022/11/29 00:43:10;;;;;;;16.83;8.95;;;;;;;;;;10411737;28;21928;-77
2022/11/29 00:48:11;;;;;;;17.08;9.20;;;;;;;;;;10414398;28;20313;-77
2022/11/29 00:53:12;;;;;;;16.58;8.50;;;;;;;;;;10414695;28;20226;-77
2022/11/29 00:58:14;;;;;;;16.00;9.15;;;;;;;;;;10414669;28;20217;-77
2022/11/29 01:03:16;;;;;;;12.93;7.65;;;;;;;;;;10417557;28;20215;-77
2022/11/29 01:08:17;;;;;;;18.38;8.68;;;;;;;;;;10415403;28;20295;-77
2022/11/29 01:13:18;;;;;;;16.30;9.00;;;;;;;;;;10392397;28;20687;-77
2022/11/29 01:18:19;;;;;;;16.90;9.43;;;;;;;;;;10395006;28;20215;-77
2022/11/29 01:23:20;;;;;;;22.52;9.20;;;;;;;;;;10397299;28;20206;-77
2022/11/29 01:28:21;;;;;;;16.00;9.52;;;;;;;;;;10400698;28;20706;-77
2022/11/29 01:33:22;;;;;;;15.10;9.95;;;;;;;;;;10415890;28;20303;-77
2022/11/29 01:38:23;;;;;;;16.33;9.23;;;;;;;;;;10414688;28;20214;-77
2022/11/29 01:43:25;;;;;;;17.83;8.82;;;;;;;;;;10413589;28;20215;-77
2022/11/29 01:48:27;;;;;;;19.92;8.75;;;;;;;;;;10416305;28;20309;-77
2022/11/29 01:53:28;;;;;;;15.88;8.52;;;;;;;;;;10419659;28;20301;-77
2022/11/29 01:58:29;;;;;;;16.20;8.57;;;;;;;;;;10422733;28;20249;-77
2022/11/29 02:03:31;;;;;;;17.40;9.18;;;;;;;;;;10406955;28;20217;-77
2022/11/29 02:08:35;;;;;;;15.30;8.80;;;;;;;;;;10412390;28;20218;-77
2022/11/29 02:14:03;;;;;;;17.50;9.82;;;;;;;;;;10423528;28;20809;-77
2022/11/29 02:19:27;;;;;;;17.92;8.95;;;;;;;;;;10387478;28;20226;-77
2022/11/29 02:24:28;;;;;;;16.85;9.45;;;;;;;;;;10385411;28;20213;-77
2022/11/29 02:29:38;;;;;;;19.90;9.85;;;;;;;;;;10417265;28;20229;-77
2022/11/29 02:34:39;;;;;;;16.90;8.80;;;;;;;;;;10418713;28;20811;-77
2022/11/29 02:39:50;;;;;;;16.98;9.57;;;;;;;;;;10424664;28;20223;-77
2022/11/29 02:45:16;;;;;;;18.77;9.85;;;;;;;;;;10402474;28;20934;-77
2022/11/29 02:50:30;;;;;;;19.10;9.80;;;;;;;;;;10419930;28;20286;-77
2022/11/29 02:55:31;;;;;;;19.42;9.30;;;;;;;;;;10419852;28;20221;-78
2022/11/29 03:00:34;;;;;;;17.23;9.52;;;;;;;;;;10414825;28;20218;-77
2022/11/29 03:05:46;;;;;;;18.25;9.23;;;;;;;;;;10414963;28;20217;-77
2022/11/29 03:11:03;;;;;;;18.08;9.70;;;;;;;;;;10416480;28;20298;-77
2022/11/29 03:16:27;;;;;;;21.05;9.80;;;;;;;;;;10419184;28;20497;-77
2022/11/29 03:21:28;;;;;;;16.73;9.13;;;;;;;;;;10403704;28;20225;-77
2022/11/29 03:26:32;;;;;;;17.20;9.85;;;;;;;;;;10421055;28;20212;-77
2022/11/29 03:31:33;;;;;;;17.65;8.88;;;;;;;;;;10398193;28;20253;-76
2022/11/29 03:36:52;;;;;;;16.65;9.48;;;;;;;;;;10419025;28;20613;-77
2022/11/29 03:42:00;;;;;;;16.50;9.63;;;;;;;;;;10412935;28;20294;-76
2022/11/29 03:47:04;;;;;;;19.48;9.50;;;;;;;;;;10421019;28;20230;-76
2022/11/29 03:52:19;;;;;;;18.75;9.23;;;;;;;;;;10418602;28;20943;-78
2022/11/29 03:57:24;;;;;;;16.83;8.48;;;;;;;;;;10401840;28;20237;-76
2022/11/29 04:02:32;;;;;;;23.02;10.13;;;;;;;;;;10417966;28;20313;-76
2022/11/29 04:07:43;;;;;;;15.18;9.43;;;;;;;;;;10420627;28;21469;-76
2022/11/29 04:13:00;;;;;;;15.88;8.85;;;;;;;;;;10386086;28;20219;-76
2022/11/29 04:18:20;;;;;;;15.75;8.45;;;;;;;;;;10417530;28;20241;-76
2022/11/29 04:23:21;;;;;;;17.30;8.98;;;;;;;;;;10416757;28;20215;-76
2022/11/29 04:28:34;;;;;;;19.80;10.32;;;;;;;;;;10419289;28;20214;-76
2022/11/29 04:33:35;;;;;;;19.10;9.90;;;;;;;;;;10371907;28;20336;-76
2022/11/29 04:38:48;;;;;;;16.10;8.82;;;;;;;;;;10366764;28;20222;-76
2022/11/29 04:43:49;;;;;;;19.38;9.63;;;;;;;;;;10376533;28;20309;-76
2022/11/29 04:48:56;;;;;;;17.80;10.18;;;;;;;;;;10361297;28;20786;-76
2022/11/29 04:54:03;;;;;;;17.35;10.18;;;;;;;;;;10354186;28;20781;-76
2022/11/29 04:59:17;;;;;;;16.17;8.90;;;;;;;;;;10354841;28;20219;-77
2022/11/29 05:04:36;;;;;;;18.13;9.98;;;;;;;;;;10377588;28;20204;-76
2022/11/29 05:09:40;;;;;;;20.63;10.30;;;;;;;;;;10374463;28;20599;-76
2022/11/29 05:15:00;;;;;;;15.52;9.30;;;;;;;;;;10371476;28;20217;-76
2022/11/29 05:20:01;;;;;;;17.02;8.88;;;;;;;;;;10373351;28;20215;-77
2022/11/29 05:25:14;;;;;;;19.27;9.52;;;;;;;;;;10370657;28;20646;-76
2022/11/29 05:30:19;;;;;;;17.05;9.07;;;;;;;;;;10348150;28;20224;-77
2022/11/29 05:35:28;;;;;;;18.55;9.15;;;;;;;;;;10402536;28;20226;-76
2022/11/29 05:40:32;;;;;;;15.93;9.30;;;;;;;;;;10414573;28;20804;-76
2022/11/29 05:45:39;;;;;;;16.90;8.73;;;;;;;;;;10415025;28;20211;-77
2022/11/29 05:50:48;;;;;;;14.70;8.82;;;;;;;;;;10390876;28;20226;-77
2022/11/29 05:55:49;;;;;;;16.50;9.70;;;;;;;;;;10397537;28;21303;-77
2022/11/29 06:01:06;;;;;;;15.88;9.43;;;;;;;;;;10410140;28;20297;-77
2022/11/29 06:06:16;;;;;;;18.25;9.75;;;;;;;;;;10396155;28;20221;-77
2022/11/29 06:11:20;;;;;;;21.52;10.80;;;;;;;;;;10399541;28;20318;-77
2022/11/29 06:16:27;;;;;;;17.52;10.18;;;;;;;;;;10405075;28;20221;-77
2022/11/29 06:21:53;;;;;;;16.92;9.50;;;;;;;;;;10403843;28;20231;-77
2022/11/29 06:27:05;;;;;;;12.55;8.43;;;;;;;;;;10383150;28;20296;-77
2022/11/29 06:32:19;;;;;;;15.85;8.95;;;;;;;;;;10407165;28;20269;-78
2022/11/29 06:37:23;;;;;;;18.55;9.02;;;;;;;;;;10408575;28;20242;-78
2022/11/29 06:42:24;;;;;;;22.85;10.93;;;;;;;;;;10415889;28;20214;-77
2022/11/29 06:47:34;;;;;;;20.63;11.43;;;;;;;;;;10416973;28;20218;-78
2022/11/29 06:52:53;;;;;;;23.83;11.60;;;;;;;;;;10418030;28;20218;-78
2022/11/29 06:58:27;;;;;;;16.58;10.25;;;;;;;;;;10411216;28;20231;-78
2022/11/29 07:03:51;;;;;;;19.67;11.77;;;;;;;;;;10377475;28;21012;-80
2022/11/29 07:08:55;;;;;;;17.52;10.55;;;;;;;;;;10410709;28;20226;-79
2022/11/29 07:13:56;;;;;;;28.65;11.13;;;;;;;;;;10417813;28;20215;-78
2022/11/29 07:19:13;;;;;;;21.27;10.40;;;;;;;;;;10403530;28;20215;-79
2022/11/29 07:24:23;;;;;;;22.50;10.60;;;;;;;;;;10392739;28;20215;-78
2022/11/29 07:29:32;;;;;;;24.13;11.25;;;;;;;;;;10397408;28;20215;-79
2022/11/29 07:34:39;;;;;;;27.15;12.20;;;;;;;;;;10390489;28;20308;-79
2022/11/29 07:40:04;;;;;;;22.33;11.52;;;;;;;;;;10373371;28;20219;-78
2022/11/29 07:45:12;;;;;;;21.95;10.98;;;;;;;;;;10311493;28;20215;-78
2022/11/29 07:50:13;;;;;;;25.13;11.73;;;;;;;;;;10376790;28;20200;-78
2022/11/29 07:55:16;;;;;;;21.95;10.95;;;;;;;;;;10374293;28;20849;-78
2022/11/29 08:00:18;;;;;;;25.85;11.38;;;;;;;;;;10364156;28;20329;-79
2022/11/29 08:05:19;;;;;;;23.52;11.05;;;;;;;;;;10360554;28;20767;-78
2022/11/29 08:10:20;;;;;;;26.67;13.90;;;;;;;;;;10367226;28;20222;-78
2022/11/29 08:15:22;;;;;;;24.00;11.82;;;;;;;;;;10348215;28;20203;-78
2022/11/29 08:20:23;;;;;;;26.48;13.27;;;;;;;;;;10373549;28;20238;-79
2022/11/29 08:25:24;;;;;;;23.20;11.07;;;;;;;;;;10372936;28;20274;-78
2022/11/29 08:30:25;;;;;;;22.80;11.73;;;;;;;;;;10372707;28;20302;-79
2022/11/29 08:35:27;;;;;;;25.83;13.10;;;;;;;;;;10416530;28;20226;-79
2022/11/29 08:40:28;;;;;;;22.85;11.65;;;;;;;;;;10418547;28;20301;-78
2022/11/29 08:45:29;;;;;;;21.65;11.52;;;;;;;;;;10421439;28;20237;-78
2022/11/29 08:50:30;;;;;;;21.40;10.38;;;;;;;;;;10409789;28;20276;-78
2022/11/29 08:55:33;;;;;;;19.90;11.05;;;;;;;;;;10414451;28;20217;-78
2022/11/29 09:00:34;;;;;;;22.73;12.80;;;;;;;;;;10418415;28;20242;-78
2022/11/29 09:05:36;;;;;;;26.40;12.63;;;;;;;;;;10395704;28;20256;-78
2022/11/29 09:10:38;;;;;;;21.38;11.35;;;;;;;;;;10382579;28;20223;-78
2022/11/29 09:15:40;;;;;;;24.10;12.68;;;;;;;;;;10390385;28;20757;-77
2022/11/29 09:20:43;;;;;;;22.00;12.05;;;;;;;;;;10410648;28;20226;-77
2022/11/29 09:25:47;;;;;;;25.23;12.80;;;;;;;;;;10403326;28;21349;-78
2022/11/29 09:30:49;;;;;;;26.25;12.70;;;;;;;;;;10406412;28;20207;-78
2022/11/29 09:35:50;;;;;;;24.67;13.43;;;;;;;;;;10376089;28;20288;-78
2022/11/29 09:40:51;;;;;;;21.95;11.15;;;;;;;;;;10367045;28;20206;-78
2022/11/29 09:46:16;;;;;;;28.52;13.05;;;;;;;;;;10352983;28;20207;-79
2022/11/29 09:51:38;;;;;;;32.15;14.23;;;;;;;;;;10364438;28;20222;-78
2022/11/29 09:56:39;;;;;;;30.30;15.35;;;;;;;;;;10354915;28;20215;-77
2022/11/29 10:01:44;;;;;;;25.25;12.40;;;;;;;;;;10360934;28;20219;-77
2022/11/29 10:06:54;;;;;;;35.92;15.30;;;;;;;;;;10366800;28;20246;-78
2022/11/29 10:11:55;;;;;;;31.45;14.20;;;;;;;;;;10383305;28;20782;-79
2022/11/29 10:17:10;;;;;;;33.72;14.02;;;;;;;;;;10384616;28;20227;-77
2022/11/29 10:22:34;;;;;;;29.65;12.57;;;;;;;;;;10369890;28;20240;-77
2022/11/29 10:27:38;;;;;;;27.58;13.05;;;;;;;;;;10382179;28;20219;-77
2022/11/29 10:32:39;;;;;;;33.00;14.02;;;;;;;;;;10389646;28;20324;-78
2022/11/29 10:37:40;;;;;;;28.50;13.30;;;;;;;;;;10417439;28;20253;-78
2022/11/29 10:42:48;;;;;;;37.58;14.98;;;;;;;;;;10413948;28;20207;-78
2022/11/29 10:47:49;;;;;;;58.75;18.17;;;;;;;;;;10419463;28;20226;-78
2022/11/29 10:52:51;;;;;;;28.60;14.07;;;;;;;;;;10402140;28;20727;-78
2022/11/29 10:58:08;;;;;;;31.80;12.57;;;;;;;;;;10416938;28;20236;-78
2022/11/29 11:03:15;;;;;;;36.65;14.55;;;;;;;;;;10413487;28;20719;-78
2022/11/29 11:08:17;;;;;;;27.70;12.07;;;;;;;;;;10417655;28;20280;-78
2022/11/29 11:13:21;;;;;;;28.63;12.18;;;;;;;;;;10400647;28;20211;-77
2022/11/29 11:18:24;;;;;;;29.50;12.55;;;;;;;;;;10390142;28;20845;-77
2022/11/29 11:23:28;;;;;;;29.83;13.90;;;;;;;;;;10414604;28;20295;-77
2022/11/29 11:28:43;;;;;;;28.13;13.00;;;;;;;;;;10391652;28;20249;-77
2022/11/29 11:33:45;;;;;;;29.88;13.88;;;;;;;;;;10410884;28;20253;-79
2022/11/29 11:38:54;;;;;;;30.20;13.35;;;;;;;;;;10378596;28;21431;-79
2022/11/29 11:43:58;;;;;;;27.17;12.90;;;;;;;;;;10403906;28;20203;-79
2022/11/29 11:49:00;;;;;;;38.30;14.85;;;;;;;;;;10414289;28;20272;-79
2022/11/29 11:54:01;;;;;;;35.05;14.55;;;;;;;;;;10417116;28;20565;-79
2022/11/29 11:59:02;;;;;;;30.38;14.13;;;;;;;;;;10399617;28;20276;-80
2022/11/29 12:04:28;;;;;;;37.90;15.68;;;;;;;;;;10381444;28;20207;-79
2022/11/29 12:09:43;;;;;;;28.77;13.88;;;;;;;;;;10412202;28;20308;-78
2022/11/29 12:14:50;;;;;;;38.53;15.73;;;;;;;;;;10394381;28;20218;-79
2022/11/29 12:19:57;;;;;;;35.28;14.18;;;;;;;;;;10414762;28;20540;-80
2022/11/29 12:25:01;;;;;;;35.05;15.13;;;;;;;;;;10401971;28;20207;-80
2022/11/29 12:30:05;;;;;;;32.45;14.80;;;;;;;;;;10377517;28;20273;-80
2022/11/29 12:35:25;;;;;;;31.85;14.07;;;;;;;;;;10410311;28;20626;-80
2022/11/29 12:40:43;;;;;;;35.75;14.82;;;;;;;;;;10395224;28;20686;-80
2022/11/29 12:45:53;;;;;;;36.35;14.57;;;;;;;;;;10411625;28;20249;-80
2022/11/29 12:50:57;;;;;;;36.05;15.70;;;;;;;;;;10413994;28;20210;-80
2022/11/29 12:56:12;;;;;;;41.90;15.13;;;;;;;;;;10411917;28;20219;-79
2022/11/29 13:01:25;;;;;;;34.03;15.90;;;;;;;;;;10416856;28;20215;-79
2022/11/29 13:06:49;;;;;;;38.15;14.18;;;;;;;;;;10421480;28;20271;-79
2022/11/29 13:12:16;;;;;;;28.70;13.10;;;;;;;;;;10397498;28;20275;-79
2022/11/29 13:17:35;;;;;;;30.42;12.23;;;;;;;;;;10399330;28;20227;-80
2022/11/29 13:22:41;;;;;;;27.40;12.40;;;;;;;;;;10397074;28;20211;-78
2022/11/29 13:27:53;;;;;;;32.53;14.77;;;;;;;;;;10397569;28;20219;-79
2022/11/29 13:33:04;;;;;;;30.30;12.98;;;;;;;;;;10413963;28;20821;-80
2022/11/29 13:38:24;;;;;;;25.17;12.20;;;;;;;;;;10414767;28;20206;-81
2022/11/29 13:43:34;;;;;;;32.10;13.55;;;;;;;;;;10400987;28;20222;-80
2022/11/29 13:48:48;;;;;;;26.15;13.43;;;;;;;;;;10371333;28;20219;-80
2022/11/29 13:53:50;;;;;;;26.88;13.88;;;;;;;;;;10419808;28;20218;-80
2022/11/29 13:58:52;;;;;;;26.17;12.43;;;;;;;;;;10420151;28;20222;-80
2022/11/29 14:04:02;;;;;;;33.30;13.05;;;;;;;;;;10421339;28;20207;-79
2022/11/29 14:09:21;;;;;;;23.52;12.27;;;;;;;;;;10430198;28;20225;-79
2022/11/29 14:14:25;;;;;;;30.13;13.35;;;;;;;;;;10411414;28;20305;-80
2022/11/29 14:19:34;;;;;;;22.95;11.98;;;;;;;;;;10419062;28;20215;-80
2022/11/29 14:24:35;;;;;;;30.27;13.23;;;;;;;;;;10424022;28;20210;-77
2022/11/29 14:29:49;;;;;;;30.23;13.15;;;;;;;;;;10412265;28;20686;-79
2022/11/29 14:35:02;;;;;;;31.48;14.55;;;;;;;;;;10425145;28;20233;-79
2022/11/29 14:40:13;;;;;;;33.15;13.43;;;;;;;;;;10421115;28;20284;-79
2022/11/29 14:45:27;;;;;;;31.50;14.45;;;;;;;;;;10384554;28;20791;-79
2022/11/29 14:50:33;;;;;;;34.53;14.23;;;;;;;;;;10382737;28;20242;-79
2022/11/29 14:55:37;;;;;;;35.85;14.40;;;;;;;;;;10346390;28;20234;-79
2022/11/29 15:00:48;;;;;;;34.58;13.85;;;;;;;;;;10415322;28;20247;-79
2022/11/29 15:05:57;;;;;;;31.63;14.02;;;;;;;;;;10387756;28;20784;-80
2022/11/29 15:11:01;;;;;;;33.35;14.57;;;;;;;;;;10430346;28;20246;-79
2022/11/29 15:16:21;;;;;;;34.28;14.82;;;;;;;;;;10407847;28;20220;-79
2022/11/29 15:21:42;;;;;;;28.77;14.85;;;;;;;;;;10408465;28;20214;-80
2022/11/29 15:27:00;;;;;;;33.13;12.98;;;;;;;;;;10460109;28;20237;-81
2022/11/29 15:32:04;;;;;;;32.88;13.98;;;;;;;;;;10441886;28;20706;-79
2022/11/29 15:37:05;;;;;;;35.67;13.70;;;;;;;;;;10410956;28;20376;-79
2022/11/29 15:42:10;;;;;;;36.13;13.70;;;;;;;;;;10401617;28;20219;-79
2022/11/29 15:47:15;;;;;;;33.72;14.02;;;;;;;;;;10349512;28;20211;-78
2022/11/29 15:52:36;;;;;;;37.90;14.77;;;;;;;;;;10379885;28;20222;-78
2022/11/29 15:57:37;;;;;;;34.47;13.20;;;;;;;;;;10408719;28;20236;-78
2022/11/29 16:02:43;;;;;;;38.00;14.70;;;;;;;;;;10408801;28;20217;-78
2022/11/29 16:07:45;;;;;;;38.00;14.30;;;;;;;;;;10382134;28;20216;-78
2022/11/29 16:12:54;;;;;;;31.40;12.63;;;;;;;;;;10344505;28;20239;-78
2022/11/29 16:17:55;;;;;;;34.30;14.23;;;;;;;;;;10372444;28;20280;-78
2022/11/29 16:23:04;;;;;;;36.25;13.85;;;;;;;;;;10403723;28;20214;-78
2022/11/29 16:28:10;;;;;;;30.15;12.35;;;;;;;;;;10415838;28;20761;-79
2022/11/29 16:33:20;;;;;;;26.02;12.85;;;;;;;;;;10410984;28;20249;-78
2022/11/29 16:38:22;;;;;;;33.47;14.80;;;;;;;;;;10413961;28;20718;-78
2022/11/29 16:43:43;;;;;;;32.92;13.13;;;;;;;;;;10391756;28;20923;-78
2022/11/29 16:48:44;;;;;;;38.38;13.55;;;;;;;;;;10360798;28;20375;-78
2022/11/29 16:53:52;;;;;;;28.33;12.25;;;;;;;;;;10404015;28;20229;-78
2022/11/29 16:58:54;;;;;;;30.20;13.45;;;;;;;;;;10407636;28;20215;-79
2022/11/29 17:03:56;;;;;;;28.55;13.73;;;;;;;;;;10418817;28;20279;-78
2022/11/29 17:08:58;;;;;;;23.17;10.93;;;;;;;;;;10416511;28;20362;-78
2022/11/29 17:13:59;;;;;;;28.98;11.98;;;;;;;;;;10420353;28;20322;-79
2022/11/29 17:19:00;;;;;;;25.27;12.15;;;;;;;;;;10413208;28;20253;-79
2022/11/29 17:24:01;;;;;;;28.77;12.10;;;;;;;;;;10416823;28;20854;-78
2022/11/29 17:29:03;;;;;;;26.35;12.20;;;;;;;;;;10408258;28;20227;-78
2022/11/29 17:34:04;;;;;;;24.17;11.88;;;;;;;;;;10418230;28;20698;-78
2022/11/29 17:39:05;;;;;;;24.80;11.35;;;;;;;;;;10383238;28;20230;-78
2022/11/29 17:44:06;;;;;;;22.38;11.50;;;;;;;;;;10382772;28;20214;-78
2022/11/29 17:49:09;;;;;;;23.00;11.80;;;;;;;;;;10408880;28;20254;-78
2022/11/29 17:54:10;;;;;;;24.70;11.82;;;;;;;;;;10420669;28;20814;-78
2022/11/29 17:59:11;;;;;;;22.25;11.82;;;;;;;;;;10416065;28;20222;-78
2022/11/29 18:04:12;;;;;;;20.40;11.18;;;;;;;;;;10415796;28;20614;-78
2022/11/29 18:09:13;;;;;;;23.25;11.77;;;;;;;;;;10392500;28;20222;-79
2022/11/29 18:14:16;;;;;;;24.48;11.80;;;;;;;;;;10407198;28;20583;-78
2022/11/29 18:19:18;;;;;;;19.30;10.85;;;;;;;;;;10405988;28;20717;-78
2022/11/29 18:24:19;;;;;;;25.58;10.90;;;;;;;;;;10408594;28;20211;-78
2022/11/29 18:29:21;;;;;;;22.17;11.55;;;;;;;;;;10410532;28;20218;-79
2022/11/29 18:34:23;;;;;;;26.52;11.02;;;;;;;;;;10411104;28;20222;-79
2022/11/29 18:39:24;;;;;;;24.23;11.88;;;;;;;;;;10407053;28;20682;-78
2022/11/29 18:44:28;;;;;;;18.27;10.48;;;;;;;;;;10422732;28;20724;-78
2022/11/29 18:49:29;;;;;;;22.00;11.45;;;;;;;;;;10414296;28;20222;-78
2022/11/29 18:54:30;;;;;;;23.35;11.35;;;;;;;;;;10392136;28;20223;-78
2022/11/29 18:59:31;;;;;;;27.48;12.40;;;;;;;;;;10410821;28;20215;-79
2022/11/29 19:04:32;;;;;;;27.55;12.07;;;;;;;;;;10408201;28;20214;-79
2022/11/29 19:09:33;;;;;;;22.05;11.10;;;;;;;;;;10392484;28;20679;-78
2022/11/29 19:14:34;;;;;;;23.20;10.98;;;;;;;;;;10423280;28;20211;-78
2022/11/29 19:19:35;;;;;;;23.70;11.35;;;;;;;;;;10404364;28;20245;-78
2022/11/29 19:24:37;;;;;;;20.52;10.40;;;;;;;;;;10397602;28;20361;-78
2022/11/29 19:29:38;;;;;;;29.92;11.98;;;;;;;;;;10405189;28;20211;-79
2022/11/29 19:34:39;;;;;;;22.77;11.95;;;;;;;;;;10397728;28;20236;-78
2022/11/29 19:39:40;;;;;;;21.45;11.63;;;;;;;;;;10416863;28;20219;-78
2022/11/29 19:44:42;;;;;;;24.63;10.95;;;;;;;;;;10396121;28;20207;-78
2022/11/29 19:49:43;;;;;;;27.00;12.40;;;;;;;;;;10413262;28;20651;-78
2022/11/29 19:54:44;;;;;;;23.83;11.52;;;;;;;;;;10410922;28;20218;-78
2022/11/29 19:59:46;;;;;;;28.00;12.88;;;;;;;;;;10386523;28;20215;-78
2022/11/29 20:04:48;;;;;;;28.38;11.95;;;;;;;;;;10414192;28;20214;-78
2022/11/29 20:09:49;;;;;;;23.50;12.40;;;;;;;;;;10393006;28;20517;-78
2022/11/29 20:14:50;;;;;;;25.83;11.82;;;;;;;;;;10393884;28;20799;-78
2022/11/29 20:19:51;;;;;;;33.28;13.32;;;;;;;;;;10408838;28;20334;-80
2022/11/29 20:24:53;;;;;;;23.55;11.88;;;;;;;;;;10388678;28;20209;-78
2022/11/29 20:29:54;;;;;;;25.65;12.65;;;;;;;;;;10388970;28;20532;-78
2022/11/29 20:34:56;;;;;;;25.33;11.90;;;;;;;;;;10374233;28;20219;-76
2022/11/29 20:40:00;;;;;;;31.70;12.05;;;;;;;;;;10308020;28;20244;-78
2022/11/29 20:45:03;;;;;;;30.25;12.90;;;;;;;;;;10355873;28;20318;-77
2022/11/29 20:50:04;;;;;;;21.85;11.65;;;;;;;;;;10346797;28;20484;-77
2022/11/29 20:55:06;;;;;;;22.10;12.18;;;;;;;;;;10354248;28;20175;-77
2022/11/29 21:00:10;;;;;;;25.67;11.88;;;;;;;;;;10350969;28;20215;-77
2022/11/29 21:05:12;;;;;;;24.27;12.25;;;;;;;;;;10373563;28;20249;-77
2022/11/29 21:10:16;;;;;;;23.95;11.70;;;;;;;;;;10369024;28;20199;-77
2022/11/29 21:15:17;;;;;;;28.05;12.55;;;;;;;;;;10368681;28;20259;-77
2022/11/29 21:20:21;;;;;;;23.90;12.18;;;;;;;;;;10370104;28;20208;-77
2022/11/29 21:25:34;;;;;;;24.95;11.90;;;;;;;;;;10369691;28;20230;-77
2022/11/29 21:30:35;;;;;;;22.25;11.35;;;;;;;;;;10373869;28;20317;-77
2022/11/29 21:35:38;;;;;;;34.38;11.85;;;;;;;;;;10367373;28;20811;-77
2022/11/29 21:40:39;;;;;;;28.70;11.95;;;;;;;;;;10363574;28;20219;-77
2022/11/29 21:45:40;;;;;;;25.60;11.68;;;;;;;;;;10361196;28;20271;-78
2022/11/29 21:50:41;;;;;;;24.67;11.75;;;;;;;;;;10359739;28;20228;-78
2022/11/29 21:55:43;;;;;;;23.92;11.60;;;;;;;;;;10365731;28;20231;-77
2022/11/29 22:00:44;;;;;;;28.05;13.07;;;;;;;;;;10366839;28;20226;-77
2022/11/29 22:05:45;;;;;;;30.17;12.30;;;;;;;;;;10355966;28;20302;-77
2022/11/29 22:10:46;;;;;;;22.45;12.82;;;;;;;;;;10373531;28;20215;-78
2022/11/29 22:15:47;;;;;;;30.05;12.57;;;;;;;;;;10369395;28;20269;-78
2022/11/29 22:20:48;;;;;;;25.80;12.30;;;;;;;;;;10369948;28;20231;-77
2022/11/29 22:25:49;;;;;;;26.40;11.90;;;;;;;;;;10352432;28;20216;-78
2022/11/29 22:30:50;;;;;;;25.05;11.43;;;;;;;;;;10378053;28;20225;-80
2022/11/29 22:35:51;;;;;;;28.48;13.02;;;;;;;;;;10375706;28;20223;-79
2022/11/29 22:40:52;;;;;;;31.45;13.82;;;;;;;;;;10363113;28;20247;-78
2022/11/29 22:45:53;;;;;;;33.28;11.95;;;;;;;;;;10372003;28;20365;-77
2022/11/29 22:51:01;;;;;;;34.53;13.98;;;;;;;;;;10374848;28;20274;-77
2022/11/29 22:56:03;;;;;;;33.83;14.38;;;;;;;;;;10374467;28;20211;-77
2022/11/29 23:01:14;;;;;;;33.13;13.23;;;;;;;;;;10373299;28;20735;-77
2022/11/29 23:06:16;;;;;;;30.63;14.13;;;;;;;;;;10359177;28;20979;-79
2022/11/29 23:11:19;;;;;;;31.13;12.65;;;;;;;;;;10362819;28;20558;-78
2022/11/29 23:16:25;;;;;;;36.35;14.00;;;;;;;;;;10366303;28;20230;-78
2022/11/29 23:21:30;;;;;;;36.28;12.40;;;;;;;;;;10370687;28;20237;-78
2022/11/29 23:26:35;;;;;;;32.60;14.40;;;;;;;;;;10363414;28;20211;-78
2022/11/29 23:31:36;;;;;;;34.53;14.27;;;;;;;;;;10333303;28;20223;-78
2022/11/29 23:36:37;;;;;;;34.85;14.93;;;;;;;;;;10322529;28;20689;-77
2022/11/29 23:41:38;;;;;;;32.40;13.70;;;;;;;;;;10297984;28;20211;-78
2022/11/29 23:46:39;;;;;;;33.60;13.73;;;;;;;;;;10330856;28;20290;-78
2022/11/29 23:51:40;;;;;;;31.00;13.25;;;;;;;;;;10330787;28;20224;-78
2022/11/29 23:56:41;;;;;;;27.25;12.18;;;;;;;;;;10332675;28;20224;-78
